map of OAX home
OAX - Airport
Location
City:  Oaxaca, Oaxaca, México
Name:Xoxocotlán International Airport
ICAO:MMOX
IATA:OAX

Details
Type:Airport (Aerodrome, Airfield)
Use:Public/Civil, International (customs port of entry)
Latitude:17°00'00"N (16.999906)
Longitude:96°43'36"W (-96.726638)
Datum:WGS 1984
Elevation:4989 ft (1521 m)
Variation:3.79°E (WMM2015 magnetic declination)
-0.12° annual change
Runways:1
Longest:8038 × 148 ft (2450 × 45 m), paved

Time
Time Zone:UTC-6 (DST-5)
Local Time:

Weather
METAR:MMOX 130145Z 27006KT 7SM SCT220 15/05 A3029 RMK 8/008

Related Locations
Nearby:
Farthest:CCK: 11481 mi / 18477 km
West Island (Pulau Panjang) [Cocos (Keeling) Islands], CC

Find:

   beyond  
but within

Other Information
Maps:
NOTAMs:
Links:
Sources:

  
flag of México
flag of Oaxaca
  

Sectional Chart

Flight Planning
at skyvector.com

Satellite Image

Google Maps Satellite view

 

Copyright © 2004-2017 Karl L. Swartz. All rights reserved.
The Great Circle Mapper name and logo are trademarks of the Great Circle Mapper.
All other trademarks mentioned herein belong to their respective owners.
Please see credits for attibutions and further copyright information.

  Follow gcmap on Facebook Follow gcmap on Twitter Follow gcmap on Google+ GCmap on LinkedIn

hCard Microformat

Geo Microformat